sensor_id;sensor_type;location;lat;lon;timestamp;pressure;altitude;pressure_sealevel;temperature;humidity
23339;BME280;11841;49.368;20.962;2023-07-28T00:01:44;95355.84;;;11.58;79.26
23339;BME280;11841;49.368;20.962;2023-07-28T00:04:30;95361.75;;;11.60;78.81
23339;BME280;11841;49.368;20.962;2023-07-28T00:07:15;95362.78;;;11.59;78.93
23339;BME280;11841;49.368;20.962;2023-07-28T00:10:01;95363.34;;;11.61;79.29
23339;BME280;11841;49.368;20.962;2023-07-28T00:12:46;95363.50;;;11.66;78.92
23339;BME280;11841;49.368;20.962;2023-07-28T00:15:32;95363.03;;;11.69;78.67
23339;BME280;11841;49.368;20.962;2023-07-28T00:18:17;95360.38;;;11.69;78.47
23339;BME280;11841;49.368;20.962;2023-07-28T00:21:04;95355.38;;;11.61;78.75
23339;BME280;11841;49.368;20.962;2023-07-28T00:23:50;95352.72;;;11.61;79.17
23339;BME280;11841;49.368;20.962;2023-07-28T00:26:35;95352.38;;;11.58;79.02
23339;BME280;11841;49.368;20.962;2023-07-28T00:29:20;95349.97;;;11.56;79.58
23339;BME280;11841;49.368;20.962;2023-07-28T00:32:06;95348.25;;;11.62;79.24
23339;BME280;11841;49.368;20.962;2023-07-28T00:34:52;95347.56;;;11.66;79.34
23339;BME280;11841;49.368;20.962;2023-07-28T00:37:37;95339.84;;;11.65;79.42
23339;BME280;11841;49.368;20.962;2023-07-28T00:40:23;95334.88;;;11.68;79.64
23339;BME280;11841;49.368;20.962;2023-07-28T00:43:08;95330.13;;;11.70;80.18
23339;BME280;11841;49.368;20.962;2023-07-28T00:45:54;95332.56;;;11.72;80.52
23339;BME280;11841;49.368;20.962;2023-07-28T00:48:40;95338.78;;;11.77;80.83
23339;BME280;11841;49.368;20.962;2023-07-28T00:51:25;95337.75;;;11.78;80.96
23339;BME280;11841;49.368;20.962;2023-07-28T00:54:10;95335.66;;;11.80;81.66
23339;BME280;11841;49.368;20.962;2023-07-28T00:56:55;95324.00;;;11.81;81.69
23339;BME280;11841;49.368;20.962;2023-07-28T00:59:41;95321.91;;;11.83;81.84
23339;BME280;11841;49.368;20.962;2023-07-28T01:02:26;95316.59;;;11.83;82.19
23339;BME280;11841;49.368;20.962;2023-07-28T01:05:12;95313.38;;;11.81;82.19
23339;BME280;11841;49.368;20.962;2023-07-28T01:08:11;95314.53;;;11.85;82.64
23339;BME280;11841;49.368;20.962;2023-07-28T01:11:01;95309.22;;;11.85;82.40
23339;BME280;11841;49.368;20.962;2023-07-28T01:13:46;95298.00;;;11.83;83.12
23339;BME280;11841;49.368;20.962;2023-07-28T01:16:32;95288.44;;;11.82;83.49
23339;BME280;11841;49.368;20.962;2023-07-28T01:19:19;95294.63;;;11.88;83.30
23339;BME280;11841;49.368;20.962;2023-07-28T01:28:09;95274.88;;;11.95;83.93
23339;BME280;11841;49.368;20.962;2023-07-28T01:30:56;95278.69;;;11.99;84.22
23339;BME280;11841;49.368;20.962;2023-07-28T01:33:42;95282.72;;;12.02;84.28
23339;BME280;11841;49.368;20.962;2023-07-28T01:36:28;95281.44;;;12.04;84.13
23339;BME280;11841;49.368;20.962;2023-07-28T01:39:13;95271.28;;;12.01;84.17
23339;BME280;11841;49.368;20.962;2023-07-28T01:41:59;95266.53;;;12.03;84.03
23339;BME280;11841;49.368;20.962;2023-07-28T01:44:44;95264.34;;;12.00;84.04
23339;BME280;11841;49.368;20.962;2023-07-28T01:47:29;95264.34;;;12.00;83.56
23339;BME280;11841;49.368;20.962;2023-07-28T01:50:15;95259.75;;;11.96;83.68
23339;BME280;11841;49.368;20.962;2023-07-28T01:53:00;95266.91;;;11.95;83.64
23339;BME280;11841;49.368;20.962;2023-07-28T01:55:46;95258.38;;;11.93;83.75
23339;BME280;11841;49.368;20.962;2023-07-28T01:58:31;95269.56;;;11.95;83.44
23339;BME280;11841;49.368;20.962;2023-07-28T02:01:17;95273.84;;;11.96;83.48
23339;BME280;11841;49.368;20.962;2023-07-28T02:04:02;95263.22;;;11.96;83.63
23339;BME280;11841;49.368;20.962;2023-07-28T02:06:48;95270.63;;;11.94;83.26
23339;BME280;11841;49.368;20.962;2023-07-28T02:09:33;95259.19;;;11.94;83.03
23339;BME280;11841;49.368;20.962;2023-07-28T02:12:18;95270.63;;;11.94;83.33
23339;BME280;11841;49.368;20.962;2023-07-28T02:15:07;95270.63;;;11.94;83.84
23339;BME280;11841;49.368;20.962;2023-07-28T02:17:52;95266.56;;;11.92;83.88
23339;BME280;11841;49.368;20.962;2023-07-28T02:20:40;95270.06;;;11.92;84.02
23339;BME280;11841;49.368;20.962;2023-07-28T02:23:25;95267.97;;;11.94;84.46
23339;BME280;11841;49.368;20.962;2023-07-28T02:26:10;95264.25;;;11.95;84.44
23339;BME280;11841;49.368;20.962;2023-07-28T02:28:56;95259.19;;;11.94;84.54
23339;BME280;11841;49.368;20.962;2023-07-28T02:31:41;95259.53;;;11.97;84.69
23339;BME280;11841;49.368;20.962;2023-07-28T02:34:27;95264.03;;;11.97;85.02
23339;BME280;11841;49.368;20.962;2023-07-28T02:37:12;95264.84;;;11.97;84.99
23339;BME280;11841;49.368;20.962;2023-07-28T02:39:58;95260.09;;;11.99;85.46
23339;BME280;11841;49.368;20.962;2023-07-28T02:42:43;95252.13;;;11.99;86.35
23339;BME280;11841;49.368;20.962;2023-07-28T02:45:28;95247.25;;;11.96;86.94
23339;BME280;11841;49.368;20.962;2023-07-28T02:48:14;95252.34;;;11.98;87.42
23339;BME280;11841;49.368;20.962;2023-07-28T02:51:00;95248.75;;;12.04;87.39
23339;BME280;11841;49.368;20.962;2023-07-28T02:53:46;95251.75;;;12.07;87.92
23339;BME280;11841;49.368;20.962;2023-07-28T02:56:31;95248.03;;;12.08;87.96
23339;BME280;11841;49.368;20.962;2023-07-28T02:59:21;95247.69;;;12.17;87.35
23339;BME280;11841;49.368;20.962;2023-07-28T03:02:07;95243.97;;;12.18;87.72
23339;BME280;11841;49.368;20.962;2023-07-28T03:04:52;95243.47;;;12.21;87.86
23339;BME280;11841;49.368;20.962;2023-07-28T03:07:38;95237.69;;;12.24;88.35
23339;BME280;11841;49.368;20.962;2023-07-28T03:10:23;95238.84;;;12.28;88.28
23339;BME280;11841;49.368;20.962;2023-07-28T03:13:08;95236.28;;;12.33;88.02
23339;BME280;11841;49.368;20.962;2023-07-28T03:15:54;95234.44;;;12.33;88.42
23339;BME280;11841;49.368;20.962;2023-07-28T03:18:39;95235.44;;;12.32;88.56
23339;BME280;11841;49.368;20.962;2023-07-28T03:21:25;95238.69;;;12.34;88.40
23339;BME280;11841;49.368;20.962;2023-07-28T03:24:10;95237.41;;;12.37;88.29
23339;BME280;11841;49.368;20.962;2023-07-28T03:26:56;95235.88;;;12.41;88.32
23339;BME280;11841;49.368;20.962;2023-07-28T03:29:41;95239.50;;;12.35;89.23
23339;BME280;11841;49.368;20.962;2023-07-28T03:32:26;95237.66;;;12.35;89.57
23339;BME280;11841;49.368;20.962;2023-07-28T03:35:13;95239.59;;;12.40;89.26
23339;BME280;11841;49.368;20.962;2023-07-28T03:37:58;95236.44;;;12.43;89.10
23339;BME280;11841;49.368;20.962;2023-07-28T03:40:43;95241.84;;;12.48;89.09
23339;BME280;11841;49.368;20.962;2023-07-28T03:43:28;95229.13;;;12.50;89.15
23339;BME280;11841;49.368;20.962;2023-07-28T03:46:14;95229.22;;;12.55;89.19
23339;BME280;11841;49.368;20.962;2023-07-28T03:49:00;95238.59;;;12.57;89.21
23339;BME280;11841;49.368;20.962;2023-07-28T03:51:45;95238.88;;;12.61;88.82
23339;BME280;11841;49.368;20.962;2023-07-28T03:54:30;95228.56;;;12.64;88.76
23339;BME280;11841;49.368;20.962;2023-07-28T03:57:16;95221.41;;;12.65;89.20
23339;BME280;11841;49.368;20.962;2023-07-28T04:00:02;95229.06;;;12.61;89.79
23339;BME280;11841;49.368;20.962;2023-07-28T04:02:47;95222.84;;;12.56;90.63
23339;BME280;11841;49.368;20.962;2023-07-28T04:05:32;95222.13;;;12.60;90.23
23339;BME280;11841;49.368;20.962;2023-07-28T04:08:18;95216.34;;;12.63;90.50
23339;BME280;11841;49.368;20.962;2023-07-28T04:11:03;95215.59;;;12.68;90.21
23339;BME280;11841;49.368;20.962;2023-07-28T04:13:49;95214.16;;;12.77;89.71
23339;BME280;11841;49.368;20.962;2023-07-28T04:16:34;95223.13;;;12.71;91.12
23339;BME280;11841;49.368;20.962;2023-07-28T04:19:20;95207.16;;;12.71;91.59
23339;BME280;11841;49.368;20.962;2023-07-28T04:22:05;95212.16;;;12.67;91.72
23339;BME280;11841;49.368;20.962;2023-07-28T04:24:51;95207.69;;;12.73;92.29
23339;BME280;11841;49.368;20.962;2023-07-28T04:27:36;95186.66;;;12.71;92.78
23339;BME280;11841;49.368;20.962;2023-07-28T04:30:21;95196.53;;;12.71;93.15
23339;BME280;11841;49.368;20.962;2023-07-28T04:33:07;95206.19;;;12.77;92.85
23339;BME280;11841;49.368;20.962;2023-07-28T04:35:52;95201.50;;;12.84;92.26
23339;BME280;11841;49.368;20.962;2023-07-28T04:38:38;95202.16;;;12.91;92.17
23339;BME280;11841;49.368;20.962;2023-07-28T04:41:23;95208.91;;;12.98;91.98
23339;BME280;11841;49.368;20.962;2023-07-28T04:44:09;95213.56;;;13.03;92.25
23339;BME280;11841;49.368;20.962;2023-07-28T04:46:54;95213.06;;;13.06;92.11
23339;BME280;11841;49.368;20.962;2023-07-28T04:49:39;95205.72;;;13.13;91.98
23339;BME280;11841;49.368;20.962;2023-07-28T04:52:25;95204.97;;;13.17;91.60
23339;BME280;11841;49.368;20.962;2023-07-28T04:55:11;95202.63;;;13.21;91.42
23339;BME280;11841;49.368;20.962;2023-07-28T04:57:56;95194.72;;;13.26;91.21
23339;BME280;11841;49.368;20.962;2023-07-28T05:00:42;95193.44;;;13.28;91.12
23339;BME280;11841;49.368;20.962;2023-07-28T05:03:27;95187.91;;;13.35;91.28
23339;BME280;11841;49.368;20.962;2023-07-28T05:06:13;95196.69;;;13.35;92.21
23339;BME280;11841;49.368;20.962;2023-07-28T05:08:58;95186.94;;;13.41;92.40
23339;BME280;11841;49.368;20.962;2023-07-28T05:11:43;95172.06;;;13.45;92.52
23339;BME280;11841;49.368;20.962;2023-07-28T05:14:32;95178.28;;;13.51;92.53
23339;BME280;11841;49.368;20.962;2023-07-28T05:17:18;95172.19;;;13.55;92.61
23339;BME280;11841;49.368;20.962;2023-07-28T05:20:03;95168.47;;;13.56;93.71
23339;BME280;11841;49.368;20.962;2023-07-28T05:22:49;95157.81;;;13.56;94.49
23339;BME280;11841;49.368;20.962;2023-07-28T05:25:34;95153.63;;;13.60;94.25
23339;BME280;11841;49.368;20.962;2023-07-28T05:28:19;95154.25;;;13.67;93.73
23339;BME280;11841;49.368;20.962;2023-07-28T05:31:05;95158.50;;;13.68;94.49
23339;BME280;11841;49.368;20.962;2023-07-28T05:33:51;95157.41;;;13.64;95.54
23339;BME280;11841;49.368;20.962;2023-07-28T05:36:39;95150.44;;;13.63;95.92
23339;BME280;11841;49.368;20.962;2023-07-28T05:39:24;95153.22;;;13.73;95.44
23339;BME280;11841;49.368;20.962;2023-07-28T05:42:10;95160.00;;;13.81;96.37
23339;BME280;11841;49.368;20.962;2023-07-28T05:44:55;95161.94;;;13.90;95.75
23339;BME280;11841;49.368;20.962;2023-07-28T05:47:40;95148.97;;;13.99;95.30
23339;BME280;11841;49.368;20.962;2023-07-28T05:50:26;95145.03;;;14.01;96.26
23339;BME280;11841;49.368;20.962;2023-07-28T05:53:11;95150.47;;;14.11;96.04
23339;BME280;11841;49.368;20.962;2023-07-28T05:55:57;95137.47;;;14.20;96.58
23339;BME280;11841;49.368;20.962;2023-07-28T05:58:44;95133.22;;;14.24;97.23
23339;BME280;11841;49.368;20.962;2023-07-28T06:01:30;95141.31;;;14.29;97.10
23339;BME280;11841;49.368;20.962;2023-07-28T06:04:17;95148.34;;;14.40;97.24
23339;BME280;11841;49.368;20.962;2023-07-28T06:07:03;95155.59;;;14.44;97.25
23339;BME280;11841;49.368;20.962;2023-07-28T06:09:48;95154.28;;;14.47;97.61
23339;BME280;11841;49.368;20.962;2023-07-28T06:12:36;95156.69;;;14.48;97.58
23339;BME280;11841;49.368;20.962;2023-07-28T06:15:21;95164.22;;;14.57;97.03
23339;BME280;11841;49.368;20.962;2023-07-28T06:18:07;95168.25;;;14.59;97.86
23339;BME280;11841;49.368;20.962;2023-07-28T06:20:52;95172.53;;;14.60;98.55
23339;BME280;11841;49.368;20.962;2023-07-28T06:23:37;95166.97;;;14.67;99.29
23339;BME280;11841;49.368;20.962;2023-07-28T06:26:23;95166.22;;;14.71;99.63
23339;BME280;11841;49.368;20.962;2023-07-28T06:29:08;95168.13;;;14.76;99.42
23339;BME280;11841;49.368;20.962;2023-07-28T06:31:54;95173.47;;;14.76;100.00
23339;BME280;11841;49.368;20.962;2023-07-28T06:34:39;95158.53;;;14.80;100.00
23339;BME280;11841;49.368;20.962;2023-07-28T06:37:24;95164.16;;;14.83;100.00
23339;BME280;11841;49.368;20.962;2023-07-28T06:40:10;95175.13;;;14.87;100.00
23339;BME280;11841;49.368;20.962;2023-07-28T06:42:57;95167.16;;;14.92;100.00
23339;BME280;11841;49.368;20.962;2023-07-28T06:45:42;95167.19;;;14.97;100.00
23339;BME280;11841;49.368;20.962;2023-07-28T06:48:27;95173.13;;;15.04;100.00
23339;BME280;11841;49.368;20.962;2023-07-28T06:51:13;95164.88;;;15.10;100.00
23339;BME280;11841;49.368;20.962;2023-07-28T06:53:58;95171.63;;;15.18;100.00
23339;BME280;11841;49.368;20.962;2023-07-28T06:56:44;95165.22;;;15.24;100.00
23339;BME280;11841;49.368;20.962;2023-07-28T06:59:29;95164.75;;;15.32;100.00
23339;BME280;11841;49.368;20.962;2023-07-28T07:02:15;95167.72;;;15.35;100.00
23339;BME280;11841;49.368;20.962;2023-07-28T07:05:00;95163.78;;;15.43;100.00
23339;BME280;11841;49.368;20.962;2023-07-28T07:07:46;95168.09;;;15.49;100.00
23339;BME280;11841;49.368;20.962;2023-07-28T07:10:32;95165.44;;;15.54;100.00
23339;BME280;11841;49.368;20.962;2023-07-28T07:13:17;95174.53;;;15.58;100.00
23339;BME280;11841;49.368;20.962;2023-07-28T07:16:02;95178.28;;;15.62;100.00
23339;BME280;11841;49.368;20.962;2023-07-28T07:18:48;95184.75;;;15.66;100.00
23339;BME280;11841;49.368;20.962;2023-07-28T07:21:33;95184.50;;;15.73;100.00
23339;BME280;11841;49.368;20.962;2023-07-28T07:24:19;95178.06;;;15.73;100.00
23339;BME280;11841;49.368;20.962;2023-07-28T07:27:05;95175.69;;;15.77;100.00
23339;BME280;11841;49.368;20.962;2023-07-28T07:29:51;95174.59;;;15.78;100.00
23339;BME280;11841;49.368;20.962;2023-07-28T07:32:37;95176.53;;;15.83;100.00
23339;BME280;11841;49.368;20.962;2023-07-28T07:35:22;95183.47;;;15.84;100.00
23339;BME280;11841;49.368;20.962;2023-07-28T07:38:08;95179.47;;;15.86;100.00
23339;BME280;11841;49.368;20.962;2023-07-28T07:40:54;95165.31;;;15.91;100.00
23339;BME280;11841;49.368;20.962;2023-07-28T07:43:39;95184.03;;;15.96;100.00
23339;BME280;11841;49.368;20.962;2023-07-28T07:46:25;95181.38;;;16.01;100.00
23339;BME280;11841;49.368;20.962;2023-07-28T07:49:10;95176.59;;;16.08;100.00
23339;BME280;11841;49.368;20.962;2023-07-28T07:51:56;95183.81;;;16.12;100.00
23339;BME280;11841;49.368;20.962;2023-07-28T07:54:41;95182.78;;;16.18;100.00
23339;BME280;11841;49.368;20.962;2023-07-28T07:57:26;95177.97;;;16.20;100.00
23339;BME280;11841;49.368;20.962;2023-07-28T08:00:12;95188.69;;;16.25;100.00
23339;BME280;11841;49.368;20.962;2023-07-28T08:02:58;95184.41;;;16.29;100.00
23339;BME280;11841;49.368;20.962;2023-07-28T08:05:44;95184.94;;;16.36;100.00
23339;BME280;11841;49.368;20.962;2023-07-28T08:08:30;95189.25;;;16.37;100.00
23339;BME280;11841;49.368;20.962;2023-07-28T08:11:15;95185.00;;;16.46;100.00
23339;BME280;11841;49.368;20.962;2023-07-28T08:14:01;95185.00;;;16.51;100.00
23339;BME280;11841;49.368;20.962;2023-07-28T08:16:46;95193.03;;;16.61;100.00
23339;BME280;11841;49.368;20.962;2023-07-28T08:19:31;95189.31;;;16.67;100.00
23339;BME280;11841;49.368;20.962;2023-07-28T08:22:17;95195.22;;;16.69;100.00
23339;BME280;11841;49.368;20.962;2023-07-28T08:25:02;95193.03;;;16.71;100.00
23339;BME280;11841;49.368;20.962;2023-07-28T08:27:49;95195.22;;;16.74;100.00
23339;BME280;11841;49.368;20.962;2023-07-28T08:30:35;95187.69;;;16.76;100.00
23339;BME280;11841;49.368;20.962;2023-07-28T08:33:20;95191.44;;;16.80;100.00
23339;BME280;11841;49.368;20.962;2023-07-28T08:36:05;95194.94;;;16.86;100.00
23339;BME280;11841;49.368;20.962;2023-07-28T08:38:52;95188.50;;;16.92;100.00
23339;BME280;11841;49.368;20.962;2023-07-28T08:41:38;95187.72;;;16.97;100.00
23339;BME280;11841;49.368;20.962;2023-07-28T08:44:24;95187.44;;;17.03;100.00
23339;BME280;11841;49.368;20.962;2023-07-28T08:47:09;95185.03;;;17.07;100.00
23339;BME280;11841;49.368;20.962;2023-07-28T08:49:54;95180.19;;;17.14;100.00
23339;BME280;11841;49.368;20.962;2023-07-28T08:52:40;95173.22;;;17.18;100.00
23339;BME280;11841;49.368;20.962;2023-07-28T08:55:26;95182.59;;;17.25;100.00
23339;BME280;11841;49.368;20.962;2023-07-28T09:01:00;95180.69;;;17.36;99.05
23339;BME280;11841;49.368;20.962;2023-07-28T09:03:48;95176.13;;;17.41;98.87
23339;BME280;11841;49.368;20.962;2023-07-28T09:06:34;95173.72;;;17.50;98.36
23339;BME280;11841;49.368;20.962;2023-07-28T09:09:21;95182.00;;;17.58;98.82
23339;BME280;11841;49.368;20.962;2023-07-28T09:12:08;95175.81;;;17.68;97.11
23339;BME280;11841;49.368;20.962;2023-07-28T09:14:56;95188.66;;;17.76;97.82
23339;BME280;11841;49.368;20.962;2023-07-28T09:17:43;95178.97;;;17.85;96.17
23339;BME280;11841;49.368;20.962;2023-07-28T09:20:37;95176.78;;;17.92;96.80
23339;BME280;11841;49.368;20.962;2023-07-28T09:23:30;95171.91;;;17.99;97.33
23339;BME280;11841;49.368;20.962;2023-07-28T09:26:16;95178.06;;;18.04;97.18
23339;BME280;11841;49.368;20.962;2023-07-28T09:32:05;95164.59;;;18.15;95.60
23339;BME280;11841;49.368;20.962;2023-07-28T09:35:05;95172.91;;;18.18;95.10
23339;BME280;11841;49.368;20.962;2023-07-28T09:37:52;95154.69;;;18.15;95.48
23339;BME280;11841;49.368;20.962;2023-07-28T09:40:40;95159.81;;;18.12;96.74
23339;BME280;11841;49.368;20.962;2023-07-28T09:43:26;95166.47;;;18.14;97.74
23339;BME280;11841;49.368;20.962;2023-07-28T09:46:12;95157.63;;;18.19;96.79
23339;BME280;11841;49.368;20.962;2023-07-28T09:48:59;95161.09;;;18.19;96.20
23339;BME280;11841;49.368;20.962;2023-07-28T09:51:53;95162.16;;;18.23;96.31
23339;BME280;11841;49.368;20.962;2023-07-28T09:54:41;95168.03;;;18.25;96.17
23339;BME280;11841;49.368;20.962;2023-07-28T09:57:29;95162.69;;;18.25;95.82
23339;BME280;11841;49.368;20.962;2023-07-28T10:00:15;95150.06;;;18.26;96.01
23339;BME280;11841;49.368;20.962;2023-07-28T10:03:03;95155.72;;;18.24;95.38
23339;BME280;11841;49.368;20.962;2023-07-28T10:05:49;95150.84;;;18.26;95.38
23339;BME280;11841;49.368;20.962;2023-07-28T10:08:35;95154.09;;;18.23;94.61
23339;BME280;11841;49.368;20.962;2023-07-28T10:11:21;95149.28;;;18.20;93.53
23339;BME280;11841;49.368;20.962;2023-07-28T10:14:07;95156.31;;;18.11;93.89
23339;BME280;11841;49.368;20.962;2023-07-28T10:17:00;95142.91;;;18.11;94.24
23339;BME280;11841;49.368;20.962;2023-07-28T10:19:49;95154.69;;;18.15;94.38
23339;BME280;11841;49.368;20.962;2023-07-28T10:22:44;95155.50;;;18.16;92.87
23339;BME280;11841;49.368;20.962;2023-07-28T10:25:35;95155.72;;;18.19;93.88
23339;BME280;11841;49.368;20.962;2023-07-28T10:31:29;95159.41;;;18.33;94.53
23339;BME280;11841;49.368;20.962;2023-07-28T10:34:17;95156.69;;;18.38;94.43
23339;BME280;11841;49.368;20.962;2023-07-28T10:37:02;95165.81;;;18.42;94.32
23339;BME280;11841;49.368;20.962;2023-07-28T10:39:47;95160.47;;;18.42;93.54
23339;BME280;11841;49.368;20.962;2023-07-28T10:42:33;95159.91;;;18.45;94.04
23339;BME280;11841;49.368;20.962;2023-07-28T10:45:19;95164.16;;;18.51;93.94
23339;BME280;11841;49.368;20.962;2023-07-28T10:48:07;95158.22;;;18.54;95.14
23339;BME280;11841;49.368;20.962;2023-07-28T10:50:52;95165.72;;;18.57;94.83
23339;BME280;11841;49.368;20.962;2023-07-28T10:53:38;95159.78;;;18.60;94.93
23339;BME280;11841;49.368;20.962;2023-07-28T10:56:24;95171.59;;;18.64;95.31
23339;BME280;11841;49.368;20.962;2023-07-28T10:59:10;95170.72;;;18.69;95.71
23339;BME280;11841;49.368;20.962;2023-07-28T11:01:56;95172.59;;;18.73;95.92
23339;BME280;11841;49.368;20.962;2023-07-28T11:04:46;95179.00;;;18.77;96.61
23339;BME280;11841;49.368;20.962;2023-07-28T11:07:34;95172.56;;;18.78;97.62
23339;BME280;11841;49.368;20.962;2023-07-28T11:10:20;95174.97;;;18.80;98.09
23339;BME280;11841;49.368;20.962;2023-07-28T11:13:06;95172.50;;;18.83;98.47
23339;BME280;11841;49.368;20.962;2023-07-28T11:16:11;95177.66;;;18.80;100.00
23339;BME280;11841;49.368;20.962;2023-07-28T11:19:04;95158.56;;;18.81;100.00
23339;BME280;11841;49.368;20.962;2023-07-28T11:21:52;95169.38;;;18.71;100.00
23339;BME280;11841;49.368;20.962;2023-07-28T11:24:44;95167.22;;;18.73;100.00
23339;BME280;11841;49.368;20.962;2023-07-28T11:27:31;95161.84;;;18.73;99.82
23339;BME280;11841;49.368;20.962;2023-07-28T11:30:18;95173.69;;;18.67;100.00
23339;BME280;11841;49.368;20.962;2023-07-28T11:33:03;95162.44;;;18.65;100.00
23339;BME280;11841;49.368;20.962;2023-07-28T11:35:49;95159.19;;;18.68;100.00
23339;BME280;11841;49.368;20.962;2023-07-28T11:38:35;95155.44;;;18.69;100.00
23339;BME280;11841;49.368;20.962;2023-07-28T11:41:21;95154.41;;;18.60;100.00
23339;BME280;11841;49.368;20.962;2023-07-28T11:44:07;95156.56;;;18.58;100.00
23339;BME280;11841;49.368;20.962;2023-07-28T11:46:53;95153.03;;;18.68;100.00
23339;BME280;11841;49.368;20.962;2023-07-28T11:49:48;95152.69;;;18.74;100.00
23339;BME280;11841;49.368;20.962;2023-07-28T11:52:36;95155.91;;;18.76;100.00
23339;BME280;11841;49.368;20.962;2023-07-28T11:55:21;95159.91;;;18.79;100.00
23339;BME280;11841;49.368;20.962;2023-07-28T11:58:08;95153.75;;;18.78;100.00
23339;BME280;11841;49.368;20.962;2023-07-28T12:00:54;95154.88;;;18.72;100.00
23339;BME280;11841;49.368;20.962;2023-07-28T12:03:39;95151.66;;;18.70;100.00
23339;BME280;11841;49.368;20.962;2023-07-28T12:06:24;95157.50;;;18.77;100.00
23339;BME280;11841;49.368;20.962;2023-07-28T12:09:13;95161.78;;;18.83;100.00
23339;BME280;11841;49.368;20.962;2023-07-28T12:11:58;95167.69;;;18.80;100.00
23339;BME280;11841;49.368;20.962;2023-07-28T12:14:47;95170.41;;;18.75;100.00
23339;BME280;11841;49.368;20.962;2023-07-28T12:20:53;95172.75;;;18.87;100.00
23339;BME280;11841;49.368;20.962;2023-07-28T12:23:39;95176.47;;;18.91;100.00
23339;BME280;11841;49.368;20.962;2023-07-28T12:26:27;95172.97;;;18.90;100.00
23339;BME280;11841;49.368;20.962;2023-07-28T12:29:13;95174.63;;;18.86;100.00
23339;BME280;11841;49.368;20.962;2023-07-28T12:32:14;95181.16;;;18.75;100.00
23339;BME280;11841;49.368;20.962;2023-07-28T12:35:18;95185.50;;;18.71;100.00
23339;BME280;11841;49.368;20.962;2023-07-28T12:38:05;95194.38;;;18.67;100.00
23339;BME280;11841;49.368;20.962;2023-07-28T12:40:53;95201.34;;;18.68;100.00
23339;BME280;11841;49.368;20.962;2023-07-28T12:43:43;95216.09;;;18.70;100.00
23339;BME280;11841;49.368;20.962;2023-07-28T12:46:31;95210.91;;;18.84;100.00
23339;BME280;11841;49.368;20.962;2023-07-28T12:49:17;95214.00;;;18.62;100.00
23339;BME280;11841;49.368;20.962;2023-07-28T12:52:06;95218.84;;;18.60;100.00
23339;BME280;11841;49.368;20.962;2023-07-28T12:55:04;95210.22;;;18.63;100.00
23339;BME280;11841;49.368;20.962;2023-07-28T12:57:53;95214.00;;;18.62;100.00
23339;BME280;11841;49.368;20.962;2023-07-28T13:00:38;95219.94;;;18.59;100.00
23339;BME280;11841;49.368;20.962;2023-07-28T13:03:29;95221.84;;;18.54;100.00
23339;BME280;11841;49.368;20.962;2023-07-28T13:06:14;95219.16;;;18.54;100.00
23339;BME280;11841;49.368;20.962;2023-07-28T13:09:00;95228.81;;;18.55;100.00
23339;BME280;11841;49.368;20.962;2023-07-28T13:11:48;95241.97;;;18.56;100.00
23339;BME280;11841;49.368;20.962;2023-07-28T13:14:37;95234.19;;;18.55;100.00
23339;BME280;11841;49.368;20.962;2023-07-28T13:17:23;95242.00;;;18.46;100.00
23339;BME280;11841;49.368;20.962;2023-07-28T13:20:09;95246.34;;;18.42;100.00
23339;BME280;11841;49.368;20.962;2023-07-28T13:22:55;95235.28;;;18.49;100.00
23339;BME280;11841;49.368;20.962;2023-07-28T13:25:41;95242.00;;;18.46;100.00
23339;BME280;11841;49.368;20.962;2023-07-28T13:28:26;95255.19;;;18.48;100.00
23339;BME280;11841;49.368;20.962;2023-07-28T13:31:13;95251.66;;;18.52;100.00
23339;BME280;11841;49.368;20.962;2023-07-28T13:33:58;95255.41;;;18.56;100.00
23339;BME280;11841;49.368;20.962;2023-07-28T13:36:43;95246.50;;;18.61;100.00
23339;BME280;11841;49.368;20.962;2023-07-28T13:39:29;95244.88;;;18.65;100.00
23339;BME280;11841;49.368;20.962;2023-07-28T13:42:14;95250.47;;;18.68;100.00
23339;BME280;11841;49.368;20.962;2023-07-28T13:45:01;95247.53;;;18.70;100.00
23339;BME280;11841;49.368;20.962;2023-07-28T13:47:46;95248.31;;;18.70;100.00
23339;BME280;11841;49.368;20.962;2023-07-28T13:50:31;95240.34;;;18.55;100.00
23339;BME280;11841;49.368;20.962;2023-07-28T13:53:20;95243.91;;;18.46;100.00
23339;BME280;11841;49.368;20.962;2023-07-28T13:56:08;95251.97;;;18.46;100.00
23339;BME280;11841;49.368;20.962;2023-07-28T13:59:05;95259.47;;;18.49;100.00
23339;BME280;11841;49.368;20.962;2023-07-28T14:01:51;95250.09;;;18.41;100.00
23339;BME280;11841;49.368;20.962;2023-07-28T14:04:36;95252.25;;;18.39;100.00
23339;BME280;11841;49.368;20.962;2023-07-28T14:07:22;95254.94;;;18.44;100.00
23339;BME280;11841;49.368;20.962;2023-07-28T14:10:08;95261.06;;;18.45;100.00
23339;BME280;11841;49.368;20.962;2023-07-28T14:12:53;95252.53;;;18.43;100.00
23339;BME280;11841;49.368;20.962;2023-07-28T14:15:39;95251.13;;;18.50;100.00
23339;BME280;11841;49.368;20.962;2023-07-28T14:18:25;95249.75;;;18.58;100.00
23339;BME280;11841;49.368;20.962;2023-07-28T14:21:11;95244.06;;;18.64;100.00
23339;BME280;11841;49.368;20.962;2023-07-28T14:23:58;95248.31;;;18.70;100.00
23339;BME280;11841;49.368;20.962;2023-07-28T14:26:43;95235.09;;;18.79;100.00
23339;BME280;11841;49.368;20.962;2023-07-28T14:29:28;95234.25;;;18.88;100.00
23339;BME280;11841;49.368;20.962;2023-07-28T14:32:14;95232.28;;;18.99;100.00
23339;BME280;11841;49.368;20.962;2023-07-28T14:34:59;95239.19;;;19.10;100.00
23339;BME280;11841;49.368;20.962;2023-07-28T14:37:45;95232.34;;;19.27;100.00
23339;BME280;11841;49.368;20.962;2023-07-28T14:40:30;95229.53;;;19.43;100.00
23339;BME280;11841;49.368;20.962;2023-07-28T14:43:15;95220.78;;;19.56;100.00